createdAt,value
2022-11-02T00:00:23.733Z,12.28
2022-11-02T00:01:23.730Z,12.28
2022-11-02T00:02:23.747Z,12.29
2022-11-02T00:03:23.696Z,12.29
2022-11-02T00:04:23.678Z,12.32
2022-11-02T00:05:23.670Z,12.35
2022-11-02T00:06:23.677Z,12.39
2022-11-02T00:07:23.665Z,12.40
2022-11-02T00:08:23.639Z,12.42
2022-11-02T00:09:23.626Z,12.42
2022-11-02T00:10:23.607Z,12.45
2022-11-02T00:11:23.615Z,12.46
2022-11-02T00:12:23.626Z,12.49
2022-11-02T00:13:23.590Z,12.47
2022-11-02T00:14:23.546Z,12.47
2022-11-02T00:15:23.558Z,12.50
2022-11-02T00:16:23.554Z,12.53
2022-11-02T00:17:23.547Z,12.54
2022-11-02T00:18:23.970Z,12.55
2022-11-02T00:19:23.529Z,12.57
2022-11-02T00:20:23.511Z,12.60
2022-11-02T00:21:23.498Z,12.65
2022-11-02T00:22:23.478Z,12.70
2022-11-02T00:23:23.467Z,12.72
2022-11-02T00:24:23.458Z,12.76
2022-11-02T00:25:23.437Z,12.78
2022-11-02T00:26:23.435Z,12.78
2022-11-02T00:27:23.406Z,12.79
2022-11-02T00:28:23.427Z,12.82
2022-11-02T00:29:23.419Z,12.86
2022-11-02T00:30:23.389Z,12.86
2022-11-02T00:31:23.382Z,12.87
2022-11-02T00:32:23.358Z,12.93
2022-11-02T00:33:23.358Z,12.95
2022-11-02T00:34:23.330Z,12.98
2022-11-02T00:35:23.338Z,13.03
2022-11-02T00:36:23.318Z,13.05
2022-11-02T00:37:23.343Z,13.09
2022-11-02T00:38:23.316Z,13.12
2022-11-02T00:39:23.319Z,13.13
2022-11-02T00:40:23.271Z,13.13
2022-11-02T00:41:23.278Z,13.12
2022-11-02T00:42:23.250Z,13.15
2022-11-02T00:43:23.260Z,13.19
2022-11-02T00:44:23.252Z,13.19
2022-11-02T00:45:23.225Z,13.20
2022-11-02T00:46:23.242Z,13.22
2022-11-02T00:47:23.194Z,13.25
2022-11-02T00:48:23.183Z,13.25
2022-11-02T00:49:23.179Z,13.25
2022-11-02T00:50:23.195Z,13.23
2022-11-02T00:51:23.146Z,13.23
2022-11-02T00:52:23.151Z,13.20
2022-11-02T00:53:23.120Z,13.19
2022-11-02T00:54:25.959Z,13.19
2022-11-02T00:55:24.110Z,13.20
2022-11-02T00:56:23.091Z,13.20
2022-11-02T00:57:23.080Z,13.22
2022-11-02T00:58:23.220Z,13.19
2022-11-02T00:59:23.070Z,13.19
2022-11-02T01:00:23.062Z,13.20
2022-11-02T01:01:23.161Z,13.22
2022-11-02T01:02:23.141Z,13.20
2022-11-02T01:03:23.013Z,13.22
2022-11-02T01:04:22.991Z,13.25
2022-11-02T01:05:22.992Z,13.27
2022-11-02T01:06:23.004Z,13.28
2022-11-02T01:07:22.972Z,13.31
2022-11-02T01:08:22.970Z,13.31
2022-11-02T01:09:22.945Z,13.31
2022-11-02T01:10:22.931Z,13.31
2022-11-02T01:13:44.295Z,13.35
2022-11-02T01:14:43.642Z,13.31
2022-11-02T01:15:43.660Z,13.30
2022-11-02T01:16:43.628Z,13.31
2022-11-02T01:17:43.603Z,13.33
2022-11-02T01:18:43.605Z,13.35
2022-11-02T01:19:43.586Z,13.35
2022-11-02T01:20:43.581Z,13.38
2022-11-02T01:21:43.581Z,13.39
2022-11-02T01:22:43.545Z,13.41
2022-11-02T01:23:43.561Z,13.39
2022-11-02T01:24:43.546Z,13.39
2022-11-02T01:25:43.529Z,13.39
2022-11-02T01:26:43.549Z,13.41
2022-11-02T01:27:43.540Z,13.39
2022-11-02T01:28:43.511Z,13.38
2022-11-02T01:29:43.517Z,13.35
2022-11-02T01:30:43.469Z,13.33
2022-11-02T01:31:43.470Z,13.33
2022-11-02T01:32:43.470Z,13.30
2022-11-02T01:33:43.480Z,13.28
2022-11-02T01:34:43.414Z,13.30
2022-11-02T01:35:43.429Z,13.30
2022-11-02T01:36:43.421Z,13.30
2022-11-02T01:37:43.385Z,13.30
2022-11-02T01:38:43.365Z,13.31
2022-11-02T01:39:43.424Z,13.31
2022-11-02T01:40:43.349Z,13.31
2022-11-02T01:41:43.329Z,13.33
2022-11-02T01:42:43.347Z,13.33
2022-11-02T01:43:43.309Z,13.35
2022-11-02T01:44:43.322Z,13.37
2022-11-02T01:45:43.310Z,13.33
2022-11-02T01:46:43.293Z,13.35
2022-11-02T01:47:43.285Z,13.33
2022-11-02T01:48:43.315Z,13.37
2022-11-02T01:49:43.261Z,13.35
2022-11-02T01:50:43.241Z,13.33
2022-11-02T01:51:43.234Z,13.33
2022-11-02T01:52:43.219Z,13.30
2022-11-02T01:53:43.214Z,13.30
2022-11-02T01:54:43.194Z,13.31
2022-11-02T01:55:43.174Z,13.31
2022-11-02T01:56:43.182Z,13.33
2022-11-02T01:57:43.186Z,13.33
2022-11-02T01:58:43.162Z,13.35
2022-11-02T01:59:43.145Z,13.35
2022-11-02T02:00:43.125Z,13.37
2022-11-02T02:01:43.264Z,13.39
2022-11-02T02:02:43.184Z,13.42
2022-11-02T02:03:43.114Z,13.46
2022-11-02T02:04:43.074Z,13.47
2022-11-02T02:05:43.073Z,13.49
2022-11-02T02:07:05.837Z,13.47
2022-11-02T02:07:43.040Z,13.47
2022-11-02T02:08:43.035Z,13.49
2022-11-02T02:09:47.155Z,13.50
2022-11-02T02:10:44.004Z,13.49
2022-11-02T02:11:43.004Z,13.49
2022-11-02T02:12:42.960Z,13.46
2022-11-02T02:13:42.992Z,13.47
2022-11-02T02:14:42.992Z,13.46
2022-11-02T02:15:42.952Z,13.46
2022-11-02T02:16:42.942Z,13.46
2022-11-02T02:17:42.931Z,13.49
2022-11-02T02:18:42.912Z,13.49
2022-11-02T02:19:42.916Z,13.49
2022-11-02T02:20:42.873Z,13.50
2022-11-02T02:21:42.885Z,13.52
2022-11-02T02:22:42.873Z,13.54
2022-11-02T02:23:42.853Z,13.56
2022-11-02T02:24:42.845Z,13.57
2022-11-02T02:25:42.837Z,13.57
2022-11-02T02:26:42.826Z,13.54
2022-11-02T02:27:42.814Z,13.54
2022-11-02T02:28:42.792Z,13.53
2022-11-02T02:29:42.785Z,13.52
2022-11-02T02:30:42.784Z,13.52
2022-11-02T02:31:42.776Z,13.50
2022-11-02T02:32:42.757Z,13.50
2022-11-02T02:33:42.745Z,13.47
2022-11-02T02:34:42.734Z,13.44
2022-11-02T02:35:42.717Z,13.42
2022-11-02T02:36:42.732Z,13.41
2022-11-02T02:37:42.712Z,13.39
2022-11-02T02:38:42.685Z,13.38
2022-11-02T02:39:42.667Z,13.33
2022-11-02T02:40:42.649Z,13.33
2022-11-02T02:41:42.645Z,13.30
2022-11-02T02:42:42.654Z,13.30
2022-11-02T02:43:42.644Z,13.30
2022-11-02T02:44:42.619Z,13.28
2022-11-02T02:45:42.627Z,13.27
2022-11-02T02:46:42.999Z,13.30
2022-11-02T02:47:42.597Z,13.27
2022-11-02T02:48:42.565Z,13.23
2022-11-02T02:49:42.592Z,13.20
2022-11-02T02:50:42.528Z,13.18
2022-11-02T02:51:42.545Z,13.16
2022-11-02T02:52:42.533Z,13.16
2022-11-02T02:53:42.525Z,13.16
2022-11-02T02:54:42.509Z,13.15
2022-11-02T02:55:42.484Z,13.18
2022-11-02T02:56:42.502Z,13.19
2022-11-02T02:57:42.457Z,13.20
2022-11-02T02:58:42.493Z,13.19
2022-11-02T02:59:42.499Z,13.18
2022-11-02T03:00:42.497Z,13.15
2022-11-02T03:01:42.612Z,13.13
2022-11-02T03:02:42.637Z,13.08
2022-11-02T03:03:42.597Z,13.12
2022-11-02T03:04:42.629Z,13.11
2022-11-02T03:05:42.649Z,13.12
2022-11-02T03:06:42.365Z,13.12
2022-11-02T03:07:42.370Z,13.13
2022-11-02T03:08:42.758Z,13.13
2022-11-02T03:09:42.334Z,13.15
2022-11-02T03:10:42.305Z,13.16
2022-11-02T03:11:42.333Z,13.15
2022-11-02T03:12:42.289Z,13.13
2022-11-02T03:13:42.298Z,13.13
2022-11-02T03:14:42.277Z,13.12
2022-11-02T03:15:42.256Z,13.09
2022-11-02T03:16:42.261Z,13.05
2022-11-02T03:17:42.271Z,13.05
2022-11-02T03:18:42.221Z,13.05
2022-11-02T03:19:42.241Z,13.05
2022-11-02T03:20:42.201Z,13.04
2022-11-02T03:21:42.183Z,13.04
2022-11-02T03:22:42.224Z,13.04
2022-11-02T03:23:42.190Z,13.00
2022-11-02T03:24:42.178Z,12.98
2022-11-02T03:25:42.161Z,12.97
2022-11-02T03:26:42.121Z,12.94
2022-11-02T03:27:42.166Z,12.93
2022-11-02T03:28:42.109Z,12.90
2022-11-02T03:29:42.121Z,12.87
2022-11-02T03:30:42.093Z,12.86
2022-11-02T03:31:42.085Z,12.85
2022-11-02T03:32:42.073Z,12.83
2022-11-02T03:33:42.067Z,12.82
2022-11-02T03:34:42.066Z,12.83
2022-11-02T03:35:42.061Z,12.85
2022-11-02T03:36:42.011Z,12.83
2022-11-02T03:37:42.023Z,12.87
2022-11-02T03:38:42.002Z,12.87
2022-11-02T03:39:42.014Z,12.90
2022-11-02T03:40:41.990Z,12.87
2022-11-02T03:41:41.991Z,12.91
2022-11-02T03:42:42.130Z,12.90
2022-11-02T03:43:41.981Z,12.94
2022-11-02T03:44:41.927Z,12.93
2022-11-02T03:45:41.922Z,12.93
2022-11-02T03:46:41.947Z,12.94
2022-11-02T03:47:41.902Z,12.95
2022-11-02T03:48:41.964Z,12.93
2022-11-02T03:49:41.902Z,12.90
2022-11-02T03:50:41.884Z,12.86
2022-11-02T03:51:41.850Z,12.85
2022-11-02T03:52:41.846Z,12.83
2022-11-02T03:53:41.831Z,12.82
2022-11-02T03:54:41.842Z,12.83
2022-11-02T03:55:41.814Z,12.80
2022-11-02T03:56:41.794Z,12.82
2022-11-02T03:57:41.808Z,12.79
2022-11-02T03:58:41.792Z,12.80
2022-11-02T03:59:41.802Z,12.83
2022-11-02T04:00:41.770Z,12.85
2022-11-02T04:01:41.777Z,12.86
2022-11-02T04:02:41.941Z,12.85
2022-11-02T04:03:41.735Z,12.86
2022-11-02T04:04:41.730Z,12.87
2022-11-02T04:05:41.714Z,12.91
2022-11-02T04:06:41.676Z,12.93
2022-11-02T04:07:41.677Z,12.91
2022-11-02T04:08:41.654Z,12.90
2022-11-02T04:09:41.675Z,12.90
2022-11-02T04:10:41.664Z,12.91
2022-11-02T04:11:41.637Z,12.91
2022-11-02T04:12:41.623Z,12.94
2022-11-02T04:13:41.615Z,12.93
2022-11-02T04:14:41.601Z,12.93
2022-11-02T04:15:41.595Z,12.93
2022-11-02T04:16:41.583Z,12.93
2022-11-02T04:17:41.557Z,12.91
2022-11-02T04:18:41.536Z,12.90
2022-11-02T04:19:45.443Z,12.90
2022-11-02T04:20:42.534Z,12.90
2022-11-02T04:21:41.547Z,12.87
2022-11-02T04:22:42.104Z,12.87
2022-11-02T04:23:41.509Z,12.87
2022-11-02T04:24:41.475Z,12.86
2022-11-02T04:25:41.483Z,12.91
2022-11-02T04:26:41.448Z,12.94
2022-11-02T04:27:41.467Z,12.95
2022-11-02T04:28:41.429Z,13.00
2022-11-02T04:29:41.429Z,13.04
2022-11-02T04:30:41.408Z,13.04
2022-11-02T04:31:41.431Z,13.09
2022-11-02T04:32:41.440Z,13.08
2022-11-02T04:33:41.387Z,13.08
2022-11-02T04:34:41.360Z,13.09
2022-11-02T04:35:41.368Z,13.09
2022-11-02T04:36:41.355Z,13.08
2022-11-02T04:37:41.337Z,13.08
2022-11-02T04:38:41.397Z,13.09
2022-11-02T04:39:41.336Z,13.11
2022-11-02T04:40:41.308Z,13.13
2022-11-02T04:41:41.298Z,13.15
2022-11-02T04:42:41.327Z,13.15
2022-11-02T04:43:41.308Z,13.15
2022-11-02T04:44:41.260Z,13.19
2022-11-02T04:45:41.247Z,13.20
2022-11-02T04:46:41.235Z,13.20
2022-11-02T04:47:41.219Z,13.20
2022-11-02T04:48:41.201Z,13.19
2022-11-02T04:49:41.233Z,13.20
2022-11-02T04:50:41.196Z,13.20
2022-11-02T04:51:45.723Z,13.19
2022-11-02T04:52:42.148Z,13.19
2022-11-02T04:53:41.219Z,13.19
2022-11-02T04:54:41.291Z,13.20
2022-11-02T04:55:41.315Z,13.19
2022-11-02T04:56:41.320Z,13.19
2022-11-02T04:58:41.368Z,13.20
2022-11-02T04:59:41.133Z,13.20
2022-11-02T05:00:41.143Z,13.22
2022-11-02T05:01:41.550Z,13.22
2022-11-02T05:02:41.547Z,13.22
2022-11-02T05:03:41.250Z,13.25
2022-11-02T05:04:41.168Z,13.22
2022-11-02T05:05:41.212Z,13.22
2022-11-02T05:06:41.201Z,13.20
2022-11-02T05:07:41.192Z,13.19
2022-11-02T05:08:41.208Z,13.18
2022-11-02T05:09:41.044Z,13.16
2022-11-02T05:10:41.090Z,13.12
2022-11-02T05:11:41.104Z,13.11
2022-11-02T05:12:40.943Z,13.09
2022-11-02T05:13:40.952Z,13.08
2022-11-02T05:14:40.913Z,13.05
2022-11-02T05:15:41.295Z,13.04
2022-11-02T05:16:40.886Z,13.03
2022-11-02T05:17:40.879Z,12.98
2022-11-02T05:18:40.897Z,12.97
2022-11-02T05:19:40.868Z,12.97
2022-11-02T05:20:40.840Z,12.94
2022-11-02T05:21:40.854Z,12.94
2022-11-02T05:22:40.848Z,12.93
2022-11-02T05:23:40.802Z,12.91
2022-11-02T05:24:40.812Z,12.87
2022-11-02T05:25:40.793Z,12.87
2022-11-02T05:26:40.804Z,12.87
2022-11-02T05:27:40.773Z,12.86
2022-11-02T05:28:40.753Z,12.85
2022-11-02T05:29:40.756Z,12.83
2022-11-02T05:30:40.744Z,12.83
2022-11-02T05:31:40.712Z,12.85
2022-11-02T05:32:40.733Z,12.86
2022-11-02T05:33:40.694Z,12.85
2022-11-02T05:34:40.684Z,12.86
2022-11-02T05:35:40.689Z,12.87
2022-11-02T05:36:40.684Z,12.86
2022-11-02T05:37:40.661Z,12.87
2022-11-02T05:38:40.646Z,12.90
2022-11-02T05:39:40.639Z,12.90
2022-11-02T05:40:40.643Z,12.93
2022-11-02T05:41:40.604Z,12.93
2022-11-02T05:42:40.660Z,12.91
2022-11-02T05:43:40.573Z,12.91
2022-11-02T05:44:40.594Z,12.90
2022-11-02T05:45:40.565Z,12.86
2022-11-02T05:46:40.557Z,12.87
2022-11-02T05:47:40.556Z,12.90
2022-11-02T05:48:40.772Z,12.86
2022-11-02T05:49:40.532Z,12.85
2022-11-02T05:50:40.554Z,12.82
2022-11-02T05:51:40.512Z,12.82
2022-11-02T05:52:40.484Z,12.82
2022-11-02T05:53:40.473Z,12.80
2022-11-02T05:54:40.504Z,12.80
2022-11-02T05:55:40.456Z,12.79
2022-11-02T05:56:40.438Z,12.76
2022-11-02T05:57:40.425Z,12.79
2022-11-02T05:58:40.442Z,12.80
2022-11-02T05:59:41.773Z,12.82
2022-11-02T06:00:40.405Z,12.83
2022-11-02T06:01:40.437Z,12.82
2022-11-02T06:02:40.418Z,12.83
2022-11-02T06:03:40.376Z,12.85
2022-11-02T06:04:40.364Z,12.85
2022-11-02T06:05:40.440Z,12.87
2022-11-02T06:06:40.344Z,12.90
2022-11-02T06:07:40.325Z,12.93
2022-11-02T06:08:40.296Z,12.91
2022-11-02T06:09:40.313Z,12.94
2022-11-02T06:10:40.305Z,12.93
2022-11-02T06:11:40.663Z,12.94
2022-11-02T06:12:40.264Z,12.93
2022-11-02T06:13:40.237Z,12.93
2022-11-02T06:14:40.239Z,12.91
2022-11-02T06:15:40.216Z,12.93
2022-11-02T06:16:40.245Z,12.94
2022-11-02T06:17:40.219Z,12.93
2022-11-02T06:18:40.197Z,12.93
2022-11-02T06:19:40.181Z,12.95
2022-11-02T06:20:40.181Z,12.93
2022-11-02T06:21:42.054Z,12.94
2022-11-02T06:22:40.137Z,12.95
2022-11-02T06:23:40.150Z,12.94
2022-11-02T06:24:40.128Z,12.94
2022-11-02T06:25:40.107Z,12.93
2022-11-02T06:26:40.137Z,12.91
2022-11-02T06:27:45.747Z,12.91
2022-11-02T06:28:41.078Z,12.90
2022-11-02T06:29:40.079Z,12.87
2022-11-02T06:30:40.081Z,12.87
2022-11-02T06:31:40.197Z,12.86
2022-11-02T06:32:40.069Z,12.83
2022-11-02T06:33:40.017Z,12.85
2022-11-02T06:34:40.019Z,12.83
2022-11-02T06:35:40.005Z,12.86
2022-11-02T06:36:39.989Z,12.85
2022-11-02T06:37:39.998Z,12.83
2022-11-02T06:38:39.981Z,12.82
2022-11-02T06:39:39.950Z,12.82
2022-11-02T06:40:39.958Z,12.80
2022-11-02T06:41:39.940Z,12.79
2022-11-02T06:42:45.164Z,12.79
2022-11-02T06:43:40.922Z,12.79
2022-11-02T06:44:39.925Z,12.82
2022-11-02T06:45:39.882Z,12.82
2022-11-02T06:46:39.873Z,12.85
2022-11-02T06:47:39.850Z,12.87
2022-11-02T06:48:39.881Z,12.90
2022-11-02T06:49:39.871Z,12.90
2022-11-02T06:50:39.850Z,12.90
2022-11-02T06:51:39.845Z,12.86
2022-11-02T06:52:39.817Z,12.87
2022-11-02T06:53:39.837Z,12.86
2022-11-02T06:54:39.802Z,12.86
2022-11-02T06:55:39.781Z,12.86
2022-11-02T06:56:39.801Z,12.87
2022-11-02T06:57:39.769Z,12.87
2022-11-02T06:58:39.764Z,12.86
2022-11-02T06:59:39.734Z,12.87
2022-11-02T07:00:39.755Z,12.87
2022-11-02T07:01:39.889Z,12.87
2022-11-02T07:02:39.721Z,12.90
2022-11-02T07:03:39.697Z,12.91
2022-11-02T07:04:39.671Z,12.93
2022-11-02T07:05:39.663Z,12.93
2022-11-02T07:06:39.670Z,12.94
2022-11-02T07:07:39.629Z,12.95
2022-11-02T07:08:39.629Z,12.94
2022-11-02T07:09:39.621Z,12.94
2022-11-02T07:10:39.622Z,12.97
2022-11-02T07:11:39.798Z,12.98
2022-11-02T07:12:39.583Z,12.98
2022-11-02T07:13:39.562Z,13.01
2022-11-02T07:14:39.561Z,13.01
2022-11-02T07:15:39.553Z,13.01
2022-11-02T07:16:39.553Z,13.01
2022-11-02T07:17:39.522Z,13.01
2022-11-02T07:18:39.530Z,13.01
2022-11-02T07:19:39.511Z,13.04
2022-11-02T07:20:39.504Z,13.05
2022-11-02T07:21:42.399Z,13.04
2022-11-02T07:22:40.489Z,13.05
2022-11-02T07:23:39.474Z,13.05
2022-11-02T07:24:39.481Z,13.04
2022-11-02T07:25:39.426Z,13.08
2022-11-02T07:26:39.501Z,13.05
2022-11-02T07:27:39.426Z,13.05
2022-11-02T07:28:39.397Z,13.05
2022-11-02T07:29:39.382Z,13.08
2022-11-02T07:30:39.396Z,13.08
2022-11-02T07:31:39.387Z,13.08
2022-11-02T07:32:39.380Z,13.11
2022-11-02T07:33:39.354Z,13.09
2022-11-02T07:34:39.342Z,13.09
2022-11-02T07:35:39.310Z,13.08
2022-11-02T07:36:39.303Z,13.09
2022-11-02T07:37:39.338Z,13.09
2022-11-02T07:38:39.288Z,13.09
2022-11-02T07:39:39.321Z,13.09
2022-11-02T07:40:39.261Z,13.09
2022-11-02T07:41:39.257Z,13.09
2022-11-02T07:42:39.258Z,13.11
2022-11-02T07:43:42.966Z,13.09
2022-11-02T07:44:39.254Z,13.11
2022-11-02T07:45:39.222Z,13.08
2022-11-02T07:46:39.215Z,13.08
2022-11-02T07:47:39.183Z,13.08
2022-11-02T07:48:39.207Z,13.05
2022-11-02T07:49:39.158Z,13.03
2022-11-02T07:50:39.155Z,13.01
2022-11-02T07:51:39.127Z,13.00
2022-11-02T07:52:39.147Z,13.00
2022-11-02T07:53:39.135Z,12.97
2022-11-02T07:54:44.318Z,12.97
2022-11-02T07:55:40.107Z,12.95
2022-11-02T07:56:39.087Z,12.93
2022-11-02T07:57:39.063Z,12.94
2022-11-02T07:58:39.066Z,12.95
2022-11-02T07:59:39.091Z,12.93
2022-11-02T08:00:39.059Z,12.95
2022-11-02T08:01:39.192Z,12.95
2022-11-02T08:02:39.079Z,12.95
2022-11-02T08:03:39.007Z,12.97
2022-11-02T08:04:42.256Z,12.98
2022-11-02T08:05:39.975Z,13.01
2022-11-02T08:06:39.067Z,13.03
2022-11-02T08:07:39.306Z,13.03
2022-11-02T08:08:39.038Z,13.03
2022-11-02T08:09:39.000Z,13.04
2022-11-02T08:10:40.499Z,13.05
2022-11-02T08:11:39.039Z,13.05
2022-11-02T08:12:39.036Z,13.05
2022-11-02T08:13:39.061Z,13.05
2022-11-02T08:14:39.057Z,13.04
2022-11-02T08:15:39.126Z,13.04
2022-11-02T08:16:39.319Z,13.04
2022-11-02T08:17:38.923Z,13.04
2022-11-02T08:18:39.042Z,13.04
2022-11-02T08:19:39.088Z,13.05
2022-11-02T08:20:39.141Z,13.03
2022-11-02T08:21:38.868Z,13.04
2022-11-02T08:22:38.789Z,13.03
2022-11-02T08:23:38.768Z,13.04
2022-11-02T08:24:38.820Z,13.05
2022-11-02T08:25:38.778Z,13.04
2022-11-02T08:26:41.043Z,13.05
2022-11-02T08:27:39.723Z,13.05
2022-11-02T08:28:38.719Z,13.05
2022-11-02T08:29:38.736Z,13.08
2022-11-02T08:30:38.768Z,13.08
2022-11-02T08:31:38.739Z,13.09
2022-11-02T08:32:38.740Z,13.11
2022-11-02T08:33:38.752Z,13.13
2022-11-02T08:34:38.758Z,13.15
2022-11-02T08:35:38.685Z,13.13
2022-11-02T08:36:38.807Z,13.15
2022-11-02T08:37:38.771Z,13.15
2022-11-02T08:38:38.757Z,13.15
2022-11-02T08:39:38.841Z,13.15
2022-11-02T08:40:38.836Z,13.15
2022-11-02T08:41:38.743Z,13.15
2022-11-02T08:42:38.669Z,13.13
2022-11-02T08:43:38.604Z,13.13
2022-11-02T08:44:42.360Z,13.11
2022-11-02T08:46:12.519Z,13.12
2022-11-02T08:46:39.535Z,13.12
2022-11-02T08:47:38.562Z,13.12
2022-11-02T08:48:38.512Z,13.15
2022-11-02T08:49:38.480Z,13.15
2022-11-02T08:50:38.504Z,13.19
2022-11-02T08:51:38.448Z,13.20
2022-11-02T08:52:40.671Z,13.22
2022-11-02T08:53:38.423Z,13.20
2022-11-02T08:54:38.440Z,13.22
2022-11-02T08:55:38.418Z,13.23
2022-11-02T08:56:38.404Z,13.23
2022-11-02T08:57:38.380Z,13.27
2022-11-02T08:58:38.419Z,13.25
2022-11-02T08:59:38.372Z,13.22
2022-11-02T09:00:38.571Z,13.25
2022-11-02T09:01:38.387Z,13.22
2022-11-02T09:02:38.386Z,13.23
2022-11-02T09:03:38.313Z,13.27
2022-11-02T09:04:38.360Z,13.30
2022-11-02T09:05:38.312Z,13.30
2022-11-02T09:06:38.313Z,13.28
2022-11-02T09:07:38.313Z,13.28
2022-11-02T09:08:38.373Z,13.31
2022-11-02T09:09:38.248Z,13.35
2022-11-02T09:10:38.245Z,13.38
2022-11-02T09:11:38.292Z,13.39
2022-11-02T09:12:38.220Z,13.44
2022-11-02T09:13:38.361Z,13.44
2022-11-02T09:14:38.229Z,13.41
2022-11-02T09:15:38.188Z,13.42
2022-11-02T09:16:41.471Z,13.41
2022-11-02T09:17:38.161Z,13.33
2022-11-02T09:18:38.152Z,13.30
2022-11-02T09:19:38.153Z,13.27
2022-11-02T09:20:38.144Z,13.28
2022-11-02T09:21:38.105Z,13.30
2022-11-02T09:22:38.105Z,13.30
2022-11-02T09:23:38.131Z,13.27
2022-11-02T09:24:38.125Z,13.28
2022-11-02T09:25:38.150Z,13.31
2022-11-02T09:26:38.085Z,13.37
2022-11-02T09:27:38.046Z,13.35
2022-11-02T09:28:38.039Z,13.33
2022-11-02T09:29:38.018Z,13.30
2022-11-02T09:30:38.037Z,13.28
2022-11-02T09:31:37.997Z,13.27
2022-11-02T09:32:38.001Z,13.27
2022-11-02T09:33:38.016Z,13.27
2022-11-02T09:34:38.004Z,13.19
2022-11-02T09:35:38.107Z,13.22
2022-11-02T09:36:38.086Z,13.27
2022-11-02T09:37:38.100Z,13.35
2022-11-02T09:38:38.149Z,13.38
2022-11-02T09:39:38.185Z,13.41
2022-11-02T09:40:38.169Z,13.37
2022-11-02T09:41:37.905Z,13.33
2022-11-02T09:42:37.885Z,13.33
2022-11-02T09:43:37.898Z,13.35
2022-11-02T09:44:37.845Z,13.38
2022-11-02T09:45:37.931Z,13.38
2022-11-02T09:46:40.090Z,13.41
2022-11-02T09:48:11.206Z,13.46
2022-11-02T09:48:38.812Z,13.53
2022-11-02T09:49:37.846Z,13.57
2022-11-02T09:50:37.798Z,13.56
2022-11-02T09:51:37.811Z,13.54
2022-11-02T09:52:37.769Z,13.54
2022-11-02T09:53:37.769Z,13.54
2022-11-02T09:54:37.774Z,13.52
2022-11-02T09:55:37.809Z,13.50
2022-11-02T09:56:37.726Z,13.50
2022-11-02T09:57:37.727Z,13.44
2022-11-02T09:58:37.709Z,13.47
2022-11-02T09:59:37.697Z,13.46
2022-11-02T10:00:37.693Z,13.49
2022-11-02T10:01:37.741Z,13.53
2022-11-02T10:02:37.685Z,13.62
2022-11-02T10:03:37.669Z,13.62
2022-11-02T10:04:37.637Z,13.68
2022-11-02T10:05:37.744Z,13.68
2022-11-02T10:06:37.628Z,13.70
2022-11-02T10:07:37.626Z,13.68
2022-11-02T10:08:37.597Z,13.70
2022-11-02T10:09:37.589Z,13.72
2022-11-02T10:10:37.573Z,13.74
2022-11-02T10:12:37.558Z,13.60
2022-11-02T10:13:37.537Z,13.53
2022-11-02T10:14:37.518Z,13.56
2022-11-02T10:15:37.561Z,13.57
2022-11-02T10:16:37.609Z,13.60
2022-11-02T10:17:37.497Z,13.57
2022-11-02T10:18:37.488Z,13.54
2022-11-02T10:19:37.461Z,13.56
2022-11-02T10:20:37.461Z,13.59
2022-11-02T10:21:37.449Z,13.57
2022-11-02T10:22:37.461Z,13.59
2022-11-02T10:23:37.431Z,13.59
2022-11-02T10:24:37.410Z,13.54
2022-11-02T10:25:37.437Z,13.62
2022-11-02T10:26:37.393Z,13.63
2022-11-02T10:27:37.599Z,13.65
2022-11-02T10:28:37.366Z,13.74
2022-11-02T10:29:38.032Z,13.75
2022-11-02T10:30:37.363Z,13.78
2022-11-02T10:31:37.330Z,13.85
2022-11-02T10:32:37.385Z,13.90
2022-11-02T10:33:37.322Z,13.85
2022-11-02T10:34:37.296Z,13.83
2022-11-02T10:35:51.364Z,13.85
2022-11-02T10:36:38.271Z,13.92
2022-11-02T10:37:37.291Z,13.93
2022-11-02T10:38:37.274Z,14.00
2022-11-02T10:39:37.262Z,14.05
2022-11-02T10:40:37.233Z,14.15
2022-11-02T10:41:37.246Z,14.25
2022-11-02T10:42:37.244Z,14.30
2022-11-02T10:43:37.189Z,14.37
2022-11-02T10:44:37.195Z,14.40
2022-11-02T10:45:37.175Z,14.36
2022-11-02T10:46:37.166Z,14.30
2022-11-02T10:47:37.154Z,14.28
2022-11-02T10:48:37.158Z,14.32
2022-11-02T10:49:37.245Z,14.36
2022-11-02T10:50:37.147Z,14.43
2022-11-02T10:51:37.111Z,14.45
2022-11-02T10:52:37.098Z,14.45
2022-11-02T10:53:41.109Z,14.48
2022-11-02T10:54:37.074Z,14.41
2022-11-02T10:55:37.064Z,14.41
2022-11-02T10:56:37.042Z,14.44
2022-11-02T10:57:37.074Z,14.40
2022-11-02T10:58:37.023Z,14.41
2022-11-02T10:59:37.048Z,14.43
2022-11-02T11:00:37.083Z,14.40
2022-11-02T11:01:37.035Z,14.41
2022-11-02T11:02:37.018Z,14.33
2022-11-02T11:03:36.986Z,14.35
2022-11-02T11:04:36.984Z,14.23
2022-11-02T11:05:36.966Z,14.22
2022-11-02T11:06:36.925Z,14.23
2022-11-02T11:07:36.926Z,14.25
2022-11-02T11:08:36.906Z,14.25
2022-11-02T11:09:37.056Z,14.17
2022-11-02T11:10:36.907Z,14.08
2022-11-02T11:11:36.914Z,13.97
2022-11-02T11:12:36.892Z,13.97
2022-11-02T11:16:37.859Z,13.90
2022-11-02T11:19:38.422Z,13.95
2022-11-02T11:20:36.782Z,13.97
2022-11-02T11:21:36.783Z,13.99
2022-11-02T11:22:36.775Z,13.99
2022-11-02T11:23:36.766Z,13.99
2022-11-02T11:24:36.779Z,14.05
2022-11-02T11:25:37.001Z,14.12
2022-11-02T11:26:36.743Z,14.20
2022-11-02T11:27:36.759Z,14.26
2022-11-02T11:28:36.791Z,14.18
2022-11-02T11:29:36.807Z,14.15
2022-11-02T11:30:58.970Z,14.17
2022-11-02T11:31:37.692Z,14.20
2022-11-02T11:32:37.279Z,14.28
2022-11-02T11:33:36.915Z,14.36
2022-11-02T11:34:36.739Z,14.47
2022-11-02T11:35:36.636Z,14.53
2022-11-02T11:36:36.597Z,14.58
2022-11-02T11:37:36.583Z,14.69
2022-11-02T11:38:36.590Z,14.81
2022-11-02T11:39:36.611Z,14.84
2022-11-02T11:40:36.567Z,14.91
2022-11-02T11:41:36.883Z,14.97
2022-11-02T11:42:36.647Z,14.99
2022-11-02T11:43:36.579Z,14.86
2022-11-02T11:44:36.636Z,14.84
2022-11-02T11:45:36.591Z,14.78
2022-11-02T11:46:36.631Z,14.72
2022-11-02T11:47:36.631Z,14.69
2022-11-02T11:48:36.630Z,14.69
2022-11-02T11:50:37.439Z,14.51
2022-11-02T11:51:36.671Z,14.47
2022-11-02T11:52:36.631Z,14.33
2022-11-02T11:53:36.661Z,14.29
2022-11-02T11:54:36.592Z,14.30
2022-11-02T11:55:36.856Z,14.33
2022-11-02T11:56:36.535Z,14.43
2022-11-02T11:58:36.388Z,14.55
2022-11-02T11:59:36.344Z,14.53
2022-11-02T12:00:36.348Z,14.48
2022-11-02T12:01:36.384Z,14.48
2022-11-02T12:02:42.855Z,14.37
2022-11-02T12:03:37.305Z,14.29
2022-11-02T12:04:36.271Z,14.20
2022-11-02T12:05:36.284Z,14.15
2022-11-02T12:06:36.264Z,14.14
2022-11-02T12:07:36.252Z,14.17
2022-11-02T12:08:36.272Z,14.22
2022-11-02T12:09:36.249Z,14.15
2022-11-02T12:10:36.205Z,14.17
2022-11-02T12:11:36.224Z,14.15
2022-11-02T12:12:36.194Z,14.17
2022-11-02T12:13:36.192Z,14.23
2022-11-02T12:14:36.183Z,14.30
2022-11-02T12:15:36.180Z,14.41
2022-11-02T12:16:36.184Z,14.48
2022-11-02T12:17:36.163Z,14.51
2022-11-02T12:18:36.132Z,14.50
2022-11-02T12:19:36.129Z,14.53
2022-11-02T12:20:36.109Z,14.50
2022-11-02T12:21:36.108Z,14.45
2022-11-02T12:22:36.083Z,14.44
2022-11-02T12:23:36.064Z,14.47
2022-11-02T12:24:36.068Z,14.50
2022-11-02T12:25:36.080Z,14.48
2022-11-02T12:26:36.048Z,14.48
2022-11-02T12:27:36.023Z,14.53
2022-11-02T12:28:36.020Z,14.60
2022-11-02T12:29:35.996Z,14.69
2022-11-02T12:30:35.991Z,14.68
2022-11-02T12:31:36.016Z,14.69
2022-11-02T12:32:35.964Z,14.81
2022-11-02T12:33:35.975Z,14.82
2022-11-02T12:34:35.965Z,14.86
2022-11-02T12:35:35.944Z,14.92
2022-11-02T12:36:39.547Z,15.02
2022-11-02T12:37:41.155Z,14.99
2022-11-02T12:38:36.118Z,14.97
2022-11-02T12:39:35.901Z,14.94
2022-11-02T12:40:35.868Z,14.96
2022-11-02T12:41:35.884Z,15.07
2022-11-02T12:42:37.987Z,15.06
2022-11-02T12:43:37.093Z,15.11
2022-11-02T12:44:35.828Z,15.24
2022-11-02T12:45:37.461Z,15.28
2022-11-02T12:46:39.724Z,15.29
2022-11-02T12:47:36.808Z,15.19
2022-11-02T12:48:35.787Z,15.11
2022-11-02T12:49:36.427Z,15.07
2022-11-02T12:50:35.770Z,15.07
2022-11-02T12:51:35.740Z,15.15
2022-11-02T12:52:35.749Z,15.24
2022-11-02T12:53:35.738Z,15.29
2022-11-02T12:54:41.398Z,15.31
2022-11-02T12:55:38.724Z,15.29
2022-11-02T12:56:35.681Z,15.25
2022-11-02T12:57:35.720Z,15.18
2022-11-02T12:58:35.670Z,15.17
2022-11-02T12:59:35.657Z,15.21
2022-11-02T13:00:35.666Z,15.18
2022-11-02T13:01:35.866Z,15.10
2022-11-02T13:02:35.618Z,15.17
2022-11-02T13:03:35.629Z,15.27